createdAt,value
2022-08-09T00:00:19.934Z,2
2022-08-09T00:01:21.506Z,2.299999952
2022-08-09T00:02:22.103Z,2.5
2022-08-09T00:04:05.644Z,2.5
2022-08-09T00:04:34.632Z,1.899999976
2022-08-09T00:06:17.860Z,2.099999905
2022-08-09T00:06:57.057Z,2.5
2022-08-09T00:08:01.318Z,2.299999952
2022-08-09T00:08:58.681Z,2.299999952
2022-08-09T00:09:59.485Z,2.299999952
2022-08-09T00:11:01.006Z,2
2022-08-09T00:12:04.482Z,2.400000095
2022-08-09T00:13:02.517Z,2.400000095
2022-08-09T00:14:03.277Z,2.299999952
2022-08-09T00:15:06.515Z,2.200000048
2022-08-09T00:16:04.839Z,2.200000048
2022-08-09T00:17:05.531Z,2.200000048
2022-08-09T00:18:11.521Z,2.700000048
2022-08-09T00:19:09.519Z,2.299999952
2022-08-09T00:20:08.569Z,2.299999952
2022-08-09T00:21:10.010Z,2.099999905
2022-08-09T00:22:11.349Z,2.200000048
2022-08-09T00:23:54.930Z,2.099999905
2022-08-09T00:24:12.557Z,2.299999952
2022-08-09T00:25:13.382Z,1.899999976
2022-08-09T00:26:14.584Z,2.400000095
2022-08-09T00:27:15.226Z,2.299999952
2022-08-09T00:28:16.109Z,2.400000095
2022-08-09T00:29:39.570Z,2.299999952
2022-08-09T00:30:26.211Z,2.400000095
2022-08-09T00:31:56.827Z,2.5
2022-08-09T00:32:27.056Z,2.5
2022-08-09T00:33:32.647Z,2.400000095
2022-08-09T00:34:22.139Z,2.400000095
2022-08-09T00:35:22.927Z,2.5
2022-08-09T00:36:55.095Z,2.200000048
2022-08-09T00:37:55.923Z,2.200000048
2022-08-09T00:38:56.777Z,2.900000095
2022-08-09T00:40:12.230Z,2.299999952
2022-08-09T00:40:59.144Z,2.299999952
2022-08-09T00:44:09.817Z,2.200000048
2022-08-09T00:44:10.392Z,2.299999952
2022-08-09T00:44:13.639Z,2.5
2022-08-09T00:45:03.729Z,2.5
2022-08-09T00:46:02.967Z,2.099999905
2022-08-09T00:47:05.570Z,2.599999905
2022-08-09T00:48:04.482Z,2.700000048
2022-08-09T00:49:05.333Z,2.400000095
2022-08-09T00:50:06.968Z,2.299999952
2022-08-09T00:51:11.819Z,3
2022-08-09T00:52:17.508Z,2.400000095
2022-08-09T00:53:10.223Z,2.299999952
2022-08-09T00:54:10.900Z,2.099999905
2022-08-09T00:55:16.748Z,2.200000048
2022-08-09T00:56:12.409Z,2.700000048
2022-08-09T00:57:14.051Z,2.200000048
2022-08-09T00:58:22.146Z,2.799999952
2022-08-09T00:59:15.687Z,2.400000095
2022-08-09T01:00:22.049Z,2.299999952
2022-08-09T01:01:18.046Z,2.799999952
2022-08-09T01:02:18.724Z,2.200000048
2022-08-09T01:03:19.533Z,2.299999952
2022-08-09T01:04:20.389Z,2.5
2022-08-09T01:05:21.790Z,2.5
2022-08-09T01:06:21.810Z,2.5
2022-08-09T01:07:37.790Z,2.5
2022-08-09T01:08:26.927Z,2.5
2022-08-09T01:09:55.580Z,2.400000095
2022-08-09T01:10:56.277Z,2.599999905
2022-08-09T01:11:57.892Z,2.599999905
2022-08-09T01:12:58.722Z,2.599999905
2022-08-09T01:14:01.683Z,2.200000048
2022-08-09T01:15:01.057Z,2.599999905
2022-08-09T01:16:01.196Z,2.5
2022-08-09T01:17:01.901Z,2.299999952
2022-08-09T01:18:02.809Z,2.599999905
2022-08-09T01:19:04.744Z,2.299999952
2022-08-09T01:20:04.562Z,2.400000095
2022-08-09T01:21:06.047Z,2.700000048
2022-08-09T01:22:06.762Z,2.299999952
2022-08-09T01:24:00.503Z,2.599999905
2022-08-09T01:24:08.358Z,2.400000095
2022-08-09T01:25:09.203Z,2.299999952
2022-08-09T01:26:09.891Z,2.700000048
2022-08-09T01:27:10.620Z,2.400000095
2022-08-09T01:28:11.641Z,2.5
2022-08-09T01:29:12.523Z,2.5
2022-08-09T01:30:28.644Z,2.299999952
2022-08-09T01:32:28.154Z,2.5
2022-08-09T01:32:31.113Z,2.400000095
2022-08-09T01:33:16.583Z,2.700000048
2022-08-09T01:34:17.420Z,2.200000048
2022-08-09T01:35:37.723Z,2.900000095
2022-08-09T01:36:18.959Z,2.599999905
2022-08-09T01:37:42.827Z,2.200000048
2022-08-09T01:38:23.467Z,3
2022-08-09T01:39:23.212Z,2.599999905
2022-08-09T01:40:28.411Z,2.5
2022-08-09T01:41:59.855Z,2.5
2022-08-09T01:42:56.252Z,2.299999952
2022-08-09T01:43:57.128Z,2.599999905
2022-08-09T01:44:57.929Z,2.5
2022-08-09T01:45:59.552Z,2.799999952
2022-08-09T01:47:00.219Z,2.400000095
2022-08-09T01:48:01.015Z,2.700000048
2022-08-09T01:49:10.368Z,2.299999952
2022-08-09T01:50:02.625Z,2.299999952
2022-08-09T01:51:03.398Z,2.599999905
2022-08-09T01:52:07.048Z,2.599999905
2022-08-09T01:53:19.141Z,2.599999905
2022-08-09T01:54:06.583Z,3.099999905
2022-08-09T01:55:07.390Z,2.799999952
2022-08-09T01:56:08.149Z,2.599999905
2022-08-09T01:57:08.887Z,2.900000095
2022-08-09T01:58:09.672Z,2.299999952
2022-08-09T01:59:10.562Z,2.700000048
2022-08-09T02:00:34.733Z,2.299999952
2022-08-09T02:01:18.090Z,2.599999905
2022-08-09T02:02:13.962Z,2.799999952
2022-08-09T02:03:14.752Z,2.5
2022-08-09T02:04:15.559Z,3.099999905
2022-08-09T02:05:16.333Z,3.200000048
2022-08-09T02:06:17.042Z,3.200000048
2022-08-09T02:08:38.807Z,2.599999905
2022-08-09T02:08:41.401Z,3
2022-08-09T02:09:20.206Z,2.700000048
2022-08-09T02:10:29.710Z,2.599999905
2022-08-09T02:11:22.590Z,2.700000048
2022-08-09T02:12:54.268Z,2.700000048
2022-08-09T02:13:55.224Z,3
2022-08-09T02:14:55.914Z,2.799999952
2022-08-09T02:15:56.714Z,3.099999905
2022-08-09T02:16:59.683Z,2.900000095
2022-08-09T02:18:09.616Z,2.900000095
2022-08-09T02:18:59.223Z,3.200000048
2022-08-09T02:20:01.211Z,3.099999905
2022-08-09T02:21:01.304Z,2.900000095
2022-08-09T02:22:02.991Z,2.700000048
2022-08-09T02:23:03.777Z,3.299999952
2022-08-09T02:24:04.952Z,2.599999905
2022-08-09T02:25:06.783Z,2.900000095
2022-08-09T02:26:06.407Z,3.200000048
2022-08-09T02:27:07.261Z,3
2022-08-09T02:28:09.608Z,2.700000048
2022-08-09T02:29:08.870Z,2.799999952
2022-08-09T02:30:09.603Z,3
2022-08-09T02:31:10.298Z,2.900000095
2022-08-09T02:32:11.970Z,3
2022-08-09T02:33:14.255Z,2.900000095
2022-08-09T02:34:40.961Z,2.799999952
2022-08-09T02:35:17.270Z,3.099999905
2022-08-09T02:36:14.989Z,2.700000048
2022-08-09T02:37:16.673Z,2.900000095
2022-08-09T02:38:22.133Z,2.400000095
2022-08-09T02:39:20.023Z,3.099999905
2022-08-09T02:40:26.958Z,2.599999905
2022-08-09T02:41:20.573Z,2.700000048
2022-08-09T02:42:24.902Z,2.900000095
2022-08-09T02:43:23.090Z,2.700000048
2022-08-09T02:44:54.309Z,3.099999905
2022-08-09T02:45:55.064Z,3.299999952
2022-08-09T02:46:56.479Z,3
2022-08-09T02:47:59.546Z,3.099999905
2022-08-09T02:48:58.240Z,3.400000095
2022-08-09T02:50:01.767Z,2.799999952
2022-08-09T02:51:02.402Z,3.099999905
2022-08-09T02:52:01.375Z,3.200000048
2022-08-09T02:53:03.743Z,2.900000095
2022-08-09T02:54:03.903Z,3.700000048
2022-08-09T02:55:19.926Z,2.900000095
2022-08-09T02:56:05.387Z,3
2022-08-09T02:57:13.912Z,3
2022-08-09T02:58:32.511Z,3
2022-08-09T02:59:07.970Z,2.599999905
2022-08-09T03:00:21.035Z,3.400000095
2022-08-09T03:01:11.066Z,2.700000048
2022-08-09T03:02:12.128Z,2.799999952
2022-08-09T03:03:11.957Z,2.700000048
2022-08-09T03:04:19.369Z,2.700000048
2022-08-09T03:05:16.694Z,3.200000048
2022-08-09T03:06:15.154Z,3.200000048
2022-08-09T03:07:15.843Z,3
2022-08-09T03:08:16.704Z,3.200000048
2022-08-09T03:09:17.748Z,2.900000095
2022-08-09T03:10:18.237Z,3.099999905
2022-08-09T03:11:29.672Z,3
2022-08-09T03:12:20.515Z,3.099999905
2022-08-09T03:13:21.393Z,2.700000048
2022-08-09T03:14:28.347Z,3.099999905
2022-08-09T03:16:06.234Z,2.799999952
2022-08-09T03:16:54.546Z,3
2022-08-09T03:17:58.745Z,2.799999952
2022-08-09T03:18:56.307Z,3.099999905
2022-08-09T03:20:00.366Z,3.200000048
2022-08-09T03:20:57.826Z,3.099999905
2022-08-09T03:21:59.636Z,2.900000095
2022-08-09T03:23:14.918Z,3.200000048
2022-08-09T03:24:04.428Z,3.400000095
2022-08-09T03:25:20.935Z,3.099999905
2022-08-09T03:26:04.817Z,3.200000048
2022-08-09T03:27:03.590Z,2.900000095
2022-08-09T03:28:04.437Z,3.099999905
2022-08-09T03:29:09.624Z,3.099999905
2022-08-09T03:30:07.610Z,3.5
2022-08-09T03:31:21.121Z,2.5
2022-08-09T03:32:08.426Z,3.099999905
2022-08-09T03:33:17.732Z,3.099999905
2022-08-09T03:34:09.862Z,3.5
2022-08-09T03:35:15.074Z,3.5
2022-08-09T03:36:16.551Z,3.299999952
2022-08-09T03:37:54.713Z,3.200000048
2022-08-09T03:38:16.104Z,2.700000048
2022-08-09T03:39:15.058Z,3.200000048
2022-08-09T03:40:17.989Z,3
2022-08-09T03:41:18.428Z,2.900000095
2022-08-09T03:42:19.302Z,3.200000048
2022-08-09T03:43:18.983Z,2.799999952
2022-08-09T03:44:19.862Z,2.900000095
2022-08-09T03:46:04.228Z,3.299999952
2022-08-09T03:46:27.396Z,3.099999905
2022-08-09T03:47:52.775Z,3.200000048
2022-08-09T03:48:53.753Z,3
2022-08-09T03:49:58.922Z,3
2022-08-09T03:50:56.843Z,3.900000095
2022-08-09T03:52:00.153Z,2.900000095
2022-08-09T03:52:58.430Z,3.299999952
2022-08-09T03:53:59.746Z,3.200000048
2022-08-09T03:55:01.133Z,3.299999952
2022-08-09T03:56:01.845Z,2.900000095
2022-08-09T03:57:04.430Z,3.599999905
2022-08-09T03:58:09.969Z,2.900000095
2022-08-09T03:59:04.030Z,3.200000048
2022-08-09T04:00:05.010Z,2.900000095
2022-08-09T04:01:05.815Z,3.400000095
2022-08-09T04:02:07.105Z,3.599999905
2022-08-09T04:03:07.938Z,3.299999952
2022-08-09T04:04:14.471Z,2.900000095
2022-08-09T04:05:18.220Z,3
2022-08-09T04:06:10.512Z,3.099999905
2022-08-09T04:07:11.589Z,2.900000095
2022-08-09T04:08:13.111Z,3
2022-08-09T04:09:41.966Z,2.799999952
2022-08-09T04:10:14.836Z,3
2022-08-09T04:11:15.653Z,2.900000095
2022-08-09T04:12:30.403Z,3.400000095
2022-08-09T04:13:18.505Z,3.400000095
2022-08-09T04:14:53.117Z,3.5
2022-08-09T04:15:52.224Z,3
2022-08-09T04:16:21.500Z,3.799999952
2022-08-09T04:17:21.173Z,3.099999905
2022-08-09T04:18:52.423Z,3
2022-08-09T04:19:56.161Z,3
2022-08-09T04:20:54.083Z,3.299999952
2022-08-09T04:21:54.816Z,2.900000095
2022-08-09T04:22:56.466Z,3.099999905
2022-08-09T04:23:57.744Z,3.400000095
2022-08-09T04:24:57.931Z,3.799999952
2022-08-09T04:25:58.716Z,3.599999905
2022-08-09T04:26:59.392Z,3.5
2022-08-09T04:28:02.649Z,4
2022-08-09T04:29:05.225Z,3.400000095
2022-08-09T04:30:02.126Z,3.200000048
2022-08-09T04:31:05.758Z,2.900000095
2022-08-09T04:32:03.379Z,3.599999905
2022-08-09T04:33:04.987Z,3.400000095
2022-08-09T04:34:05.698Z,3.400000095
2022-08-09T04:35:08.587Z,3.900000095
2022-08-09T04:36:07.415Z,3
2022-08-09T04:37:07.967Z,3.400000095
2022-08-09T04:38:09.569Z,3.700000048
2022-08-09T04:39:10.426Z,4
2022-08-09T04:40:11.628Z,3.299999952
2022-08-09T04:41:12.495Z,3.299999952
2022-08-09T04:42:15.857Z,3.200000048
2022-08-09T04:43:15.181Z,4
2022-08-09T04:44:15.642Z,3.700000048
2022-08-09T04:45:16.532Z,3.700000048
2022-08-09T04:46:19.348Z,3.299999952
2022-08-09T04:47:18.806Z,3.200000048
2022-08-09T04:48:19.601Z,3.799999952
2022-08-09T04:49:22.208Z,3.299999952
2022-08-09T04:50:21.570Z,3.299999952
2022-08-09T04:51:53.556Z,3.5
2022-08-09T04:52:54.932Z,3.400000095
2022-08-09T04:53:58.619Z,3.400000095
2022-08-09T04:54:56.521Z,3.200000048
2022-08-09T04:55:59.813Z,3.400000095
2022-08-09T04:56:58.205Z,3
2022-08-09T04:58:09.077Z,3.400000095
2022-08-09T04:58:59.734Z,3.200000048
2022-08-09T05:00:00.564Z,4
2022-08-09T05:01:01.415Z,3.700000048
2022-08-09T05:02:03.016Z,3.400000095
2022-08-09T05:03:30.124Z,3.799999952
2022-08-09T05:04:04.784Z,3.599999905
2022-08-09T05:05:09.941Z,3.5
2022-08-09T05:06:07.455Z,3.200000048
2022-08-09T05:07:08.183Z,3.799999952
2022-08-09T05:08:09.007Z,3.5
2022-08-09T05:09:09.724Z,3.5
2022-08-09T05:10:10.516Z,3.5
2022-08-09T05:11:11.785Z,3.5
2022-08-09T05:12:12.747Z,3.799999952
2022-08-09T05:13:14.286Z,3.599999905
2022-08-09T05:14:14.817Z,3.799999952
2022-08-09T05:15:24.682Z,4.300000191
2022-08-09T05:16:16.466Z,3.900000095
2022-08-09T05:18:37.907Z,3.900000095
2022-08-09T05:18:50.761Z,3.799999952
2022-08-09T05:19:23.544Z,3.799999952
2022-08-09T05:20:20.639Z,3.400000095
2022-08-09T05:21:55.227Z,4
2022-08-09T05:23:54.846Z,3.799999952
2022-08-09T05:24:00.064Z,3.599999905
2022-08-09T05:25:00.862Z,3.5
2022-08-09T05:25:56.798Z,3.799999952
2022-08-09T05:26:56.916Z,3.799999952
2022-08-09T05:27:57.739Z,4.099999905
2022-08-09T05:28:58.566Z,4
2022-08-09T05:29:59.436Z,3.799999952
2022-08-09T05:31:00.323Z,3.700000048
2022-08-09T05:32:02.094Z,3.700000048
2022-08-09T05:33:03.640Z,3.400000095
2022-08-09T05:34:04.438Z,4.099999905
2022-08-09T05:35:05.141Z,3.700000048
2022-08-09T05:36:06.008Z,3.599999905
2022-08-09T05:37:11.309Z,3.900000095
2022-08-09T05:38:07.768Z,3.599999905
2022-08-09T05:39:09.668Z,4
2022-08-09T05:40:10.398Z,4.199999809
2022-08-09T05:41:12.859Z,3.900000095
2022-08-09T05:42:17.826Z,3.5
2022-08-09T05:43:14.088Z,3.200000048
2022-08-09T05:44:14.870Z,4.5
2022-08-09T05:45:15.698Z,3.5
2022-08-09T05:46:16.561Z,3.900000095
2022-08-09T05:47:17.432Z,4
2022-08-09T05:48:18.369Z,4.099999905
2022-08-09T05:50:24.378Z,3.900000095
2022-08-09T05:50:34.931Z,3.700000048
2022-08-09T05:51:51.498Z,4.199999809
2022-08-09T05:52:53.987Z,3.599999905
2022-08-09T05:53:57.883Z,3.5
2022-08-09T05:54:55.339Z,3.900000095
2022-08-09T05:55:55.510Z,4
2022-08-09T05:56:56.795Z,3.900000095
2022-08-09T05:57:58.408Z,3.799999952
2022-08-09T05:58:58.810Z,3.900000095
2022-08-09T05:59:59.441Z,3.799999952
2022-08-09T06:01:00.180Z,3.900000095
2022-08-09T06:02:01.049Z,3.700000048
2022-08-09T06:03:02.746Z,4.400000095
2022-08-09T06:04:05.442Z,3.900000095
2022-08-09T06:05:04.154Z,3.700000048
2022-08-09T06:06:06.516Z,3.900000095
2022-08-09T06:07:05.679Z,4
2022-08-09T06:08:07.876Z,3.700000048
2022-08-09T06:09:23.052Z,3.900000095
2022-08-09T06:10:08.904Z,3.799999952
2022-08-09T06:11:17.666Z,3.700000048
2022-08-09T06:12:10.513Z,4.099999905
2022-08-09T06:13:18.689Z,4.199999809
2022-08-09T06:14:12.964Z,3.799999952
2022-08-09T06:15:13.678Z,3.599999905
2022-08-09T06:16:14.431Z,3.5
2022-08-09T06:17:15.288Z,3.599999905
2022-08-09T06:18:16.793Z,3.5
2022-08-09T06:19:17.013Z,3.799999952
2022-08-09T06:20:18.253Z,3.400000095
2022-08-09T06:21:18.444Z,3.299999952
2022-08-09T06:22:28.725Z,3.900000095
2022-08-09T06:23:21.218Z,3.700000048
2022-08-09T06:24:53.134Z,3.5
2022-08-09T06:25:55.404Z,3.400000095
2022-08-09T06:26:54.636Z,3.5
2022-08-09T06:27:55.487Z,3.200000048
2022-08-09T06:29:00.260Z,3.400000095
2022-08-09T06:30:04.265Z,4
2022-08-09T06:30:57.833Z,3.5
2022-08-09T06:32:08.794Z,3.400000095
2022-08-09T06:33:30.116Z,3.599999905
2022-08-09T06:34:01.064Z,3.799999952
2022-08-09T06:35:01.912Z,3.200000048
2022-08-09T06:36:02.585Z,4.099999905
2022-08-09T06:37:03.405Z,3.5
2022-08-09T06:38:05.889Z,3.700000048
2022-08-09T06:39:09.230Z,3.599999905
2022-08-09T06:40:21.946Z,3.900000095
2022-08-09T06:41:18.216Z,4
2022-08-09T06:42:11.367Z,4.199999809
2022-08-09T06:43:10.522Z,4
2022-08-09T06:44:10.480Z,4.099999905
2022-08-09T06:46:05.548Z,3.5
2022-08-09T06:46:13.147Z,4.300000191
2022-08-09T06:47:13.110Z,3.5
2022-08-09T06:48:16.444Z,3.700000048
2022-08-09T06:49:22.589Z,4
2022-08-09T06:50:16.704Z,3.799999952
2022-08-09T06:51:16.388Z,3.599999905
2022-08-09T06:52:17.128Z,3.700000048
2022-08-09T06:53:18.692Z,3.799999952
2022-08-09T06:54:20.389Z,4.199999809
2022-08-09T06:55:50.863Z,5.599999905
2022-08-09T06:56:51.532Z,5.599999905
2022-08-09T06:58:02.585Z,4.300000191
2022-08-09T07:00:51.798Z,5.300000191
2022-08-09T07:00:51.800Z,4.900000095
2022-08-09T07:00:58.690Z,4.300000191
2022-08-09T07:01:58.002Z,4.199999809
2022-08-09T07:02:57.776Z,3.900000095
2022-08-09T07:04:03.731Z,3.5
2022-08-09T07:05:00.495Z,4.300000191
2022-08-09T07:06:03.833Z,4.099999905
2022-08-09T07:07:05.031Z,3.799999952
2022-08-09T07:08:02.796Z,3.799999952
2022-08-09T07:09:04.163Z,3.5
2022-08-09T07:10:18.003Z,3.900000095
2022-08-09T07:11:06.520Z,3.799999952
2022-08-09T07:12:06.427Z,9.100000381
2022-08-09T07:13:28.285Z,4.400000095
2022-08-09T07:14:09.082Z,4.099999905
2022-08-09T07:15:54.014Z,5.599999905
2022-08-09T07:16:42.429Z,4.800000191
2022-08-09T07:17:11.700Z,4.900000095
2022-08-09T07:18:14.294Z,3.799999952
2022-08-09T07:19:15.720Z,3.900000095
2022-08-09T07:20:14.215Z,3.5
2022-08-09T07:21:14.949Z,3.599999905
2022-08-09T07:22:15.843Z,3.599999905
2022-08-09T07:23:18.649Z,3.400000095
2022-08-09T07:24:17.977Z,3.5
2022-08-09T07:25:18.928Z,3.700000048
2022-08-09T07:26:20.632Z,3.900000095
2022-08-09T07:27:53.498Z,4
2022-08-09T07:29:09.368Z,2.900000095
2022-08-09T07:29:53.431Z,3.5
2022-08-09T07:30:54.164Z,3.299999952
2022-08-09T07:31:54.877Z,3.5
2022-08-09T07:32:55.670Z,2.900000095
2022-08-09T07:33:57.069Z,3.400000095
2022-08-09T07:34:57.917Z,3.5
2022-08-09T07:35:58.717Z,4.199999809
2022-08-09T07:37:02.620Z,3.599999905
2022-08-09T07:38:00.755Z,3.599999905
2022-08-09T07:39:02.405Z,4.099999905
2022-08-09T07:40:03.139Z,3.200000048
2022-08-09T07:41:11.522Z,3.400000095
2022-08-09T07:42:05.041Z,4.099999905
2022-08-09T07:43:06.988Z,3.700000048
2022-08-09T07:44:07.058Z,3.200000048
2022-08-09T07:45:23.125Z,3.200000048
2022-08-09T07:46:08.718Z,3.700000048
2022-08-09T07:47:09.916Z,3.5
2022-08-09T07:48:22.505Z,4
2022-08-09T07:49:15.337Z,3.5
2022-08-09T07:50:12.221Z,4.099999905
2022-08-09T07:52:06.122Z,3.799999952
2022-08-09T07:52:16.643Z,3.200000048
2022-08-09T07:53:14.667Z,3.200000048
2022-08-09T07:54:19.109Z,2.799999952
2022-08-09T07:55:16.942Z,3
2022-08-09T07:56:26.861Z,3.200000048
2022-08-09T07:57:18.472Z,3.599999905
2022-08-09T07:58:21.590Z,3.400000095
2022-08-09T08:00:03.097Z,3.599999905
2022-08-09T08:00:58.869Z,3
2022-08-09T08:01:53.117Z,3.400000095
2022-08-09T08:02:53.430Z,3
2022-08-09T08:03:54.618Z,3.200000048
2022-08-09T08:04:55.313Z,3.700000048
2022-08-09T08:05:58.190Z,3.299999952
2022-08-09T08:07:00.202Z,3
2022-08-09T08:08:44.450Z,3.700000048
2022-08-09T08:09:03.625Z,3.799999952
2022-08-09T08:10:08.326Z,3
2022-08-09T08:12:08.631Z,3.099999905
2022-08-09T08:12:11.615Z,3.400000095
2022-08-09T08:13:03.763Z,3.5
2022-08-09T08:14:04.836Z,3
2022-08-09T08:15:04.222Z,3.099999905
2022-08-09T08:16:05.452Z,3.099999905
2022-08-09T08:17:09.109Z,3.5
2022-08-09T08:18:06.952Z,3.099999905
2022-08-09T08:19:07.637Z,3.299999952
2022-08-09T08:20:13.277Z,3.700000048
2022-08-09T08:21:09.105Z,3.200000048
2022-08-09T08:22:09.820Z,3.5
2022-08-09T08:23:16.919Z,3.599999905
2022-08-09T08:24:16.537Z,2.900000095
2022-08-09T08:25:13.809Z,3.599999905
2022-08-09T08:26:13.467Z,2.799999952
2022-08-09T08:27:17.167Z,3.099999905
2022-08-09T08:28:18.421Z,3.599999905
2022-08-09T08:29:20.112Z,3.5
2022-08-09T08:30:17.341Z,3.799999952
2022-08-09T08:31:18.065Z,3
2022-08-09T08:32:28.699Z,3.400000095
2022-08-09T08:33:53.906Z,3.5
2022-08-09T08:34:52.139Z,3.5
2022-08-09T08:35:58.630Z,3
2022-08-09T08:36:53.309Z,3.099999905
2022-08-09T08:37:59.642Z,3.200000048
2022-08-09T08:38:54.860Z,3.200000048
2022-08-09T08:39:56.542Z,3.799999952
2022-08-09T08:40:57.179Z,3.299999952
2022-08-09T08:41:58.908Z,3.599999905
2022-08-09T08:42:58.987Z,3.299999952
2022-08-09T08:44:02.676Z,3.599999905
2022-08-09T08:45:00.867Z,2.900000095
2022-08-09T08:46:09.916Z,3.400000095
2022-08-09T08:47:04.727Z,3.099999905
2022-08-09T08:48:02.961Z,3.200000048
2022-08-09T08:49:03.709Z,3.400000095
2022-08-09T08:50:05.127Z,3.299999952
2022-08-09T08:51:05.812Z,3
2022-08-09T08:52:10.244Z,3.099999905
2022-08-09T08:53:08.056Z,3.099999905
2022-08-09T08:54:10.107Z,3.099999905
2022-08-09T08:55:09.857Z,3.299999952
2022-08-09T08:56:16.910Z,3.299999952
2022-08-09T08:57:11.858Z,3.299999952
2022-08-09T08:58:12.320Z,3.200000048
2022-08-09T08:59:19.400Z,3.099999905
2022-08-09T09:00:27.182Z,3.099999905
2022-08-09T09:01:20.728Z,3
2022-08-09T09:02:15.326Z,3.299999952
2022-08-09T09:03:20.739Z,3.400000095
2022-08-09T09:04:17.662Z,3.299999952
2022-08-09T09:05:18.829Z,2.799999952
2022-08-09T09:06:49.936Z,4.099999905
2022-08-09T09:07:50.626Z,3.5
2022-08-09T09:08:52.557Z,3.200000048
2022-08-09T09:10:02.027Z,4.199999809
2022-08-09T09:10:53.318Z,3.099999905
2022-08-09T09:11:54.029Z,3.200000048
2022-08-09T09:12:54.720Z,3.599999905
2022-08-09T09:13:58.266Z,3.200000048
2022-08-09T09:14:57.026Z,3.200000048
2022-08-09T09:15:57.710Z,3.400000095
2022-08-09T09:16:58.473Z,3.700000048
2022-08-09T09:17:59.160Z,4.800000191
2022-08-09T09:19:22.555Z,3.099999905
2022-08-09T09:20:01.139Z,3.400000095
2022-08-09T09:21:01.324Z,3.5
2022-08-09T09:22:04.220Z,3.799999952
2022-08-09T09:23:02.763Z,4
2022-08-09T09:24:04.367Z,3.099999905
2022-08-09T09:26:04.330Z,3.299999952
2022-08-09T09:26:12.406Z,3.299999952
2022-08-09T09:27:06.426Z,2.799999952
2022-08-09T09:28:08.073Z,3.200000048
2022-08-09T09:29:11.143Z,3.5
2022-08-09T09:30:15.790Z,3.5
2022-08-09T09:31:17.129Z,3.400000095
2022-08-09T09:32:15.574Z,2.799999952
2022-08-09T09:33:15.472Z,3.299999952
2022-08-09T09:34:14.232Z,3.099999905
2022-08-09T09:35:16.016Z,2.799999952
2022-08-09T09:36:20.914Z,3.099999905
2022-08-09T09:37:14.754Z,2.900000095
2022-08-09T09:38:27.572Z,3.400000095
2022-08-09T09:39:16.267Z,2.799999952
2022-08-09T09:40:17.955Z,2.599999905
2022-08-09T09:41:51.056Z,2.799999952
2022-08-09T09:42:49.720Z,3.200000048
2022-08-09T09:44:12.793Z,3.200000048
2022-08-09T09:44:51.988Z,6.699999809
2022-08-09T09:46:38.970Z,4.099999905
2022-08-09T09:46:54.003Z,3.299999952
2022-08-09T09:47:56.417Z,3.200000048
2022-08-09T09:48:55.471Z,2.900000095
2022-08-09T09:50:14.900Z,2.5
2022-08-09T09:50:56.956Z,3.099999905
2022-08-09T09:51:57.673Z,3
2022-08-09T09:52:58.604Z,3
2022-08-09T09:54:01.329Z,2.700000048
2022-08-09T09:55:00.629Z,2.900000095
2022-08-09T09:56:05.473Z,2.299999952
2022-08-09T09:58:01.050Z,2.900000095
2022-08-09T09:58:17.119Z,3.200000048
2022-08-09T09:59:03.535Z,2.799999952
2022-08-09T10:00:05.025Z,2.900000095
2022-08-09T10:01:05.750Z,2.799999952
2022-08-09T10:02:06.415Z,3
2022-08-09T10:03:09.095Z,2.799999952
2022-08-09T10:04:09.467Z,3.099999905
2022-08-09T10:05:09.487Z,3.700000048
2022-08-09T10:06:10.234Z,3.900000095
2022-08-09T10:07:11.733Z,3.099999905
2022-08-09T10:08:27.755Z,3.299999952
2022-08-09T10:09:22.574Z,2.599999905
2022-08-09T10:10:13.837Z,2.400000095
2022-08-09T10:11:53.839Z,2.599999905
2022-08-09T10:12:28.445Z,2.5
2022-08-09T10:13:24.795Z,3.700000048
2022-08-09T10:14:17.448Z,3.099999905
2022-08-09T10:16:08.859Z,3
2022-08-09T10:16:58.496Z,3
2022-08-09T10:17:56.455Z,3.099999905
2022-08-09T10:18:54.220Z,2.900000095
2022-08-09T10:19:56.845Z,2.900000095
2022-08-09T10:20:53.531Z,2.700000048
2022-08-09T10:21:54.233Z,3
2022-08-09T10:23:00.456Z,2.700000048
2022-08-09T10:23:55.542Z,2.5
2022-08-09T10:24:56.966Z,3.299999952
2022-08-09T10:26:06.266Z,2.799999952
2022-08-09T10:26:59.184Z,2.200000048
2022-08-09T10:27:59.856Z,2.400000095
2022-08-09T10:29:36.111Z,2.299999952
2022-08-09T10:30:49.467Z,2.700000048
2022-08-09T10:33:04.339Z,2.200000048
2022-08-09T10:34:11.492Z,2.599999905
2022-08-09T10:35:06.486Z,2.900000095
2022-08-09T10:36:11.481Z,2.299999952
2022-08-09T10:37:09.857Z,2.5
2022-08-09T10:38:41.731Z,2.900000095
2022-08-09T10:39:13.943Z,2.599999905
2022-08-09T10:40:12.203Z,2.599999905
2022-08-09T10:41:11.794Z,2.299999952
2022-08-09T10:42:12.563Z,3
2022-08-09T10:43:13.211Z,2.599999905
2022-08-09T10:44:13.893Z,2.5
2022-08-09T10:45:15.936Z,3.700000048
2022-08-09T10:46:20.080Z,4.599999905
2022-08-09T10:48:12.541Z,2.900000095
2022-08-09T10:48:48.224Z,3
2022-08-09T10:49:51.321Z,2.5
2022-08-09T10:50:50.502Z,3
2022-08-09T10:51:52.791Z,2.700000048
2022-08-09T10:52:52.063Z,2.299999952
2022-08-09T10:53:54.780Z,3.5
2022-08-09T10:54:54.184Z,3.5
2022-08-09T10:56:00.051Z,3.299999952
2022-08-09T10:56:55.656Z,3.700000048
2022-08-09T10:58:00.147Z,3.099999905
2022-08-09T10:58:57.379Z,2.299999952
2022-08-09T10:59:58.568Z,2.299999952
2022-08-09T11:03:02.630Z,2.200000048
2022-08-09T11:03:11.547Z,2
2022-08-09T11:03:17.996Z,2.299999952
2022-08-09T11:04:03.600Z,2.299999952
2022-08-09T11:05:04.358Z,2.200000048
2022-08-09T11:06:04.422Z,2.5
2022-08-09T11:07:05.015Z,2.5
2022-08-09T11:08:05.884Z,2.5
2022-08-09T11:09:15.433Z,2.099999905
2022-08-09T11:10:07.568Z,2.900000095
2022-08-09T11:11:08.825Z,2.200000048
2022-08-09T11:12:08.910Z,2.200000048
2022-08-09T11:13:09.760Z,2
2022-08-09T11:14:11.579Z,2.599999905
2022-08-09T11:15:18.064Z,2.299999952
2022-08-09T11:16:13.861Z,2.299999952
2022-08-09T11:17:14.670Z,1.799999952
2022-08-09T11:18:16.127Z,2.400000095
2022-08-09T11:19:17.403Z,2.099999905
2022-08-09T11:20:49.761Z,2.400000095
2022-08-09T11:21:55.062Z,2.099999905
2022-08-09T11:22:57.333Z,2.400000095
2022-08-09T11:23:51.927Z,2.400000095
2022-08-09T11:24:53.154Z,2.400000095
2022-08-09T11:25:54.878Z,2.200000048
2022-08-09T11:26:55.027Z,2.099999905
2022-08-09T11:28:04.752Z,2.200000048
2022-08-09T11:28:57.246Z,2
2022-08-09T11:30:05.580Z,2.299999952
2022-08-09T11:30:57.784Z,2.200000048
2022-08-09T11:31:58.527Z,2.299999952
2022-08-09T11:32:59.330Z,2.200000048
2022-08-09T11:34:00.185Z,2.599999905
2022-08-09T11:35:01.702Z,2.400000095
2022-08-09T11:36:02.388Z,2.599999905
2022-08-09T11:37:03.143Z,2.299999952
2022-08-09T11:38:04.022Z,2.599999905
2022-08-09T11:39:04.984Z,2.299999952
2022-08-09T11:40:05.843Z,2.5
2022-08-09T11:41:07.015Z,2.900000095
2022-08-09T11:42:07.772Z,2.599999905
2022-08-09T11:43:08.571Z,2.200000048
2022-08-09T11:44:09.434Z,1.799999952
2022-08-09T11:45:10.670Z,2.400000095